LFRZ/SNR METAR and TAF weather

Enter ICAO airport designator
Station Type Date Time Source
LFRZ METAR 2021/07/27 20:30 UTC NOAA

LFRZ 272030Z AUTO 26009KT CAVOK 17/14 Q1014 NOSIG


Station Type Date Time Source
LFRZ Decoded METAR 2021/07/27 20:30 UTC NOAA

St-Nazaire, France (LFRZ) 47-19N 002-10W 4M
Jul 27, 2021 - 04:30 PM EDT / 2021.07.27 2030 UTC
Wind: from the W (260 degrees) at 10 MPH (9 KT):0
Visibility: greater than 7 mile(s):0
Temperature: 62 F (17 C)
Dew Point: 57 F (14 C)
Relative Humidity: 82%
Pressure (altimeter): 29.94 in. Hg (1014 hPa)
ob: LFRZ 272030Z AUTO 26009KT CAVOK 17/14 Q1014 NOSIG
cycle: 20

Station Type Date Time Source
LFRZ TAF 2021/07/27 18:21 UTC NOAA

TAF LFRZ 271700Z 2718/2818 28012KT 9999 SCT025
TEMPO 2802/2810 -SHRA PROB30
TEMPO 2806/2809 4500 SHRA SCT020TCU
TEMPO 2812/2816 25015G25KT

Example: see airport list